Time;durP1;ratioP1;P1;durP2;ratioP2;P2;SDS_P1;SDS_P2;PMS_P1;PMS_P2;Temp;Humidity;BMP_temperature;BMP_pressure;BME280_temperature;BME280_humidity;BME280_pressure;Samples;Min_cycle;Max_cycle;Signal;HPM_P1;HPM_P2
2020/12/06 00:01:51;;;;;;;7.03;4.72;;;;;;;8.69;74.01;99531.03;4348644;32;35004;-86
2020/12/06 00:04:20;;;;;;;2.95;2.75;;;;;;;8.49;74.60;99523.19;4336355;32;32387;-86
2020/12/06 00:06:48;;;;;;;6.35;3.60;;;;;;;8.36;75.27;99527.06;4336902;32;34499;-86
2020/12/06 00:09:20;;;;;;;7.00;5.87;;;;;;;8.26;75.44;99523.56;4336944;32;34990;-86
2020/12/06 00:11:53;;;;;;;8.10;4.95;;;;;;;8.60;74.25;99525.75;4348691;32;32566;-86
2020/12/06 00:14:21;;;;;;;4.55;3.87;;;;;;;8.65;74.05;99524.34;4344230;32;33460;-86
2020/12/06 00:16:49;;;;;;;7.45;5.07;;;;;;;8.55;73.93;99528.81;4336745;32;32797;-86
2020/12/06 00:19:29;;;;;;;8.43;4.12;;;;;;;8.49;74.40;99520.53;4274431;32;34184;-85
2020/12/06 00:22:27;;;;;;;6.03;4.10;;;;;;;8.53;74.22;99524.59;4280481;32;32634;-85
2020/12/06 00:24:54;;;;;;;12.18;4.40;;;;;;;8.48;74.62;99520.69;4300989;32;33450;-86
2020/12/06 00:27:22;;;;;;;12.90;4.65;;;;;;;8.59;73.99;99519.59;4362691;32;34685;-86
2020/12/06 00:29:50;;;;;;;9.00;6.00;;;;;;;8.34;75.10;99515.78;4347273;32;34159;-86
2020/12/06 00:32:18;;;;;;;5.32;3.05;;;;;;;8.19;75.05;99522.47;4346890;32;34271;-87
2020/12/06 00:34:46;;;;;;;7.28;3.53;;;;;;;8.18;75.59;99524.22;4362123;32;31913;-86
2020/12/06 00:37:15;;;;;;;4.60;3.12;;;;;;;8.49;74.58;99523.19;4350009;32;33774;-86
2020/12/06 00:39:44;;;;;;;7.22;4.28;;;;;;;8.24;75.46;99515.78;4363633;32;35065;-86
2020/12/06 00:42:11;;;;;;;4.60;3.33;;;;;;;8.26;75.67;99513.81;4360269;32;33061;-86
2020/12/06 00:44:38;;;;;;;4.62;4.25;;;;;;;8.51;74.31;99519.44;4347815;32;32577;-86
2020/12/06 00:47:06;;;;;;;4.60;3.65;;;;;;;8.04;76.10;99511.38;4342939;33;32807;-86
2020/12/06 00:49:33;;;;;;;3.60;3.28;;;;;;;8.11;76.17;99512.47;4361482;32;34286;-86
2020/12/06 00:52:02;;;;;;;5.03;3.62;;;;;;;8.25;75.57;99517.44;4350610;32;34122;-86
2020/12/06 00:54:30;;;;;;;7.78;4.50;;;;;;;8.13;75.82;99512.34;4350139;32;33330;-86
2020/12/06 00:56:58;;;;;;;4.87;3.78;;;;;;;8.00;76.70;99525.03;4350460;32;34552;-86
2020/12/06 00:59:27;;;;;;;5.45;3.30;;;;;;;8.07;76.29;99526.13;4335016;33;35014;-87
2020/12/06 01:02:05;;;;;;;4.85;3.83;;;;;;;8.00;76.46;99531.13;4355928;32;34285;-86
2020/12/06 01:04:33;;;;;;;7.68;4.37;;;;;;;8.12;76.22;99529.22;4338188;32;32392;-86
2020/12/06 01:07:01;;;;;;;5.82;4.37;;;;;;;8.19;75.54;99530.41;4349434;32;33597;-86
2020/12/06 01:09:28;;;;;;;7.65;4.62;;;;;;;8.20;75.83;99540.03;4344616;32;35128;-86
2020/12/06 01:11:58;;;;;;;8.52;3.90;;;;;;;7.99;76.56;99532.12;4359131;32;34649;-86
2020/12/06 01:14:25;;;;;;;4.57;2.22;;;;;;;8.06;76.29;99525.31;4348031;32;31588;-86
2020/12/06 01:16:53;;;;;;;3.55;3.22;;;;;;;7.96;76.68;99529.75;4363439;32;34027;-86
2020/12/06 01:19:21;;;;;;;6.15;2.80;;;;;;;8.26;75.33;99529.72;4338309;32;34940;-87
2020/12/06 01:21:50;;;;;;;3.28;2.92;;;;;;;8.11;75.94;99525.72;4335923;32;33451;-86
2020/12/06 01:24:19;;;;;;;3.25;2.37;;;;;;;8.08;75.62;99526.00;4346776;32;34476;-86
2020/12/06 01:26:48;;;;;;;4.72;3.22;;;;;;;8.03;76.40;99516.78;4348848;32;32824;-86
2020/12/06 01:29:16;;;;;;;;;;;;;;;8.14;75.36;99521.97;4349091;32;33950;-86
2020/12/06 01:31:48;;;;;;;10.15;3.67;;;;;;;8.27;75.12;99522.59;4359714;32;34628;-86
2020/12/06 01:34:16;;;;;;;6.62;3.80;;;;;;;8.10;76.06;99518.75;4337707;32;33400;-87
2020/12/06 01:36:44;;;;;;;5.15;2.72;;;;;;;8.15;75.84;99518.34;4347572;32;33121;-86
2020/12/06 01:39:11;;;;;;;3.87;3.05;;;;;;;8.21;75.56;99516.03;4349100;32;34685;-86
2020/12/06 01:41:39;;;;;;;2.70;1.85;;;;;;;7.97;76.48;99517.31;4349498;32;34773;-86
2020/12/06 01:44:06;;;;;;;4.90;4.28;;;;;;;7.80;76.85;99500.28;4350148;32;34000;-86
2020/12/06 01:46:36;;;;;;;3.28;2.70;;;;;;;7.98;76.46;99503.97;4325406;32;33017;-86
2020/12/06 01:49:06;;;;;;;4.28;3.37;;;;;;;7.82;77.12;99508.09;4349693;32;34232;-86
2020/12/06 01:51:34;;;;;;;7.15;2.97;;;;;;;7.92;76.65;99498.37;4348983;32;33553;-86
2020/12/06 01:54:04;;;;;;;4.47;3.75;;;;;;;7.85;76.45;99495.41;4334924;33;33575;-86
2020/12/06 01:56:32;;;;;;;5.43;4.07;;;;;;;7.96;76.42;99497.97;4367986;32;33849;-86
2020/12/06 01:58:59;;;;;;;5.22;2.67;;;;;;;7.96;76.49;99507.72;4349416;32;35222;-86
2020/12/06 02:01:27;;;;;;;1.90;1.80;;;;;;;8.17;75.46;99509.31;4343547;32;33233;-86
2020/12/06 02:03:54;;;;;;;5.47;4.87;;;;;;;7.94;76.08;99501.72;4342979;33;31376;-86
2020/12/06 02:06:22;;;;;;;5.55;5.03;;;;;;;7.93;76.42;99508.81;4340821;32;33533;-86
2020/12/06 02:08:50;;;;;;;4.32;3.95;;;;;;;8.09;75.93;99500.38;4359356;32;34802;-86
2020/12/06 02:11:31;;;;;;;2.85;2.65;;;;;;;7.85;76.86;99491.94;4349272;32;33340;-87
2020/12/06 02:13:59;;;;;;;3.05;2.75;;;;;;;7.88;76.79;99489.00;4353825;32;34511;-86
2020/12/06 02:16:27;;;;;;;6.40;3.37;;;;;;;7.87;76.57;99496.13;4361529;32;34350;-86
2020/12/06 02:18:56;;;;;;;8.43;4.40;;;;;;;7.77;77.25;99499.69;4349276;32;33457;-86
2020/12/06 02:21:23;;;;;;;9.98;5.65;;;;;;;7.70;77.63;99507.34;4361394;32;34059;-86
2020/12/06 02:23:51;;;;;;;7.32;5.82;;;;;;;7.38;78.38;99521.66;4351526;32;34315;-85
2020/12/06 02:26:18;;;;;;;4.75;3.33;;;;;;;8.00;76.03;99503.84;4361573;32;33425;-87
2020/12/06 02:28:46;;;;;;;7.05;4.57;;;;;;;7.74;76.85;99506.09;4348592;32;34480;-86
2020/12/06 02:31:13;;;;;;;3.95;3.50;;;;;;;7.71;76.91;99494.94;4336111;32;33515;-86
2020/12/06 02:33:41;;;;;;;2.87;2.25;;;;;;;7.94;75.84;99499.88;4344496;32;33943;-86
2020/12/06 02:36:08;;;;;;;;;;;;;;;7.76;76.73;99498.87;4349681;32;32497;-86
2020/12/06 02:38:36;;;;;;;4.80;3.20;;;;;;;7.58;77.60;99502.25;4373828;32;35056;-87
2020/12/06 02:41:03;;;;;;;4.50;4.10;;;;;;;7.79;76.80;99503.91;4362282;32;34108;-86
2020/12/06 02:43:31;;;;;;;4.20;2.62;;;;;;;7.58;77.29;99504.91;4336509;32;33881;-87
2020/12/06 02:45:59;;;;;;;7.05;4.45;;;;;;;7.65;77.43;99512.19;4348881;32;34468;-86
2020/12/06 02:48:27;;;;;;;;;;;;;;;7.34;78.66;99525.53;4342760;32;33571;-86
2020/12/06 02:50:54;;;;;;;5.10;3.47;;;;;;;7.65;77.53;99514.81;4348838;32;34424;-86
2020/12/06 02:53:21;;;;;;;3.95;3.58;;;;;;;7.73;77.11;99515.00;4348879;32;33190;-86
2020/12/06 02:55:49;;;;;;;3.75;2.47;;;;;;;7.78;77.00;99517.25;4361195;32;34226;-86
2020/12/06 02:58:16;;;;;;;2.70;2.50;;;;;;;7.88;76.43;99512.84;4336508;32;33702;-86
2020/12/06 03:00:44;;;;;;;9.80;5.00;;;;;;;7.68;77.27;99511.09;4350720;32;35065;-86
2020/12/06 03:03:11;;;;;;;5.25;4.82;;;;;;;7.73;76.66;99509.72;4343629;32;31773;-87
2020/12/06 03:05:40;;;;;;;6.00;3.92;;;;;;;7.75;76.96;99507.75;4339955;32;34045;-86
2020/12/06 03:08:09;;;;;;;4.68;3.00;;;;;;;7.76;76.66;99511.25;4360702;32;33387;-86
2020/12/06 03:10:36;;;;;;;3.17;2.65;;;;;;;7.96;76.12;99513.00;4348207;32;34123;-86
2020/12/06 03:13:03;;;;;;;5.05;2.95;;;;;;;7.88;76.09;99511.03;4337527;32;31767;-86
2020/12/06 03:15:31;;;;;;;3.08;2.80;;;;;;;7.89;76.17;99506.56;4349144;32;33277;-86
2020/12/06 03:17:58;;;;;;;4.68;4.28;;;;;;;7.81;76.53;99506.41;4375390;32;35848;-86
2020/12/06 03:20:26;;;;;;;4.05;3.67;;;;;;;7.80;76.38;99500.28;4375478;32;34046;-87
2020/12/06 03:22:53;;;;;;;6.20;3.12;;;;;;;7.68;76.90;99508.44;4339772;33;32085;-86
2020/12/06 03:25:21;;;;;;;4.03;2.70;;;;;;;7.96;76.03;99502.41;4325482;33;32415;-87
2020/12/06 03:27:49;;;;;;;4.05;2.22;;;;;;;7.79;76.00;99508.34;4355438;32;35489;-86
2020/12/06 03:30:17;;;;;;;5.97;2.47;;;;;;;7.90;76.19;99500.28;4351020;32;34157;-86
2020/12/06 03:32:45;;;;;;;2.40;2.30;;;;;;;7.92;76.05;99499.19;4356972;32;33238;-86
2020/12/06 03:35:12;;;;;;;4.90;2.95;;;;;;;7.54;77.66;99496.41;4338020;32;34225;-87
2020/12/06 03:37:40;;;;;;;5.53;2.60;;;;;;;7.69;77.08;99505.66;4364038;32;35975;-86
2020/12/06 03:40:07;;;;;;;2.87;2.67;;;;;;;7.72;77.07;99497.44;4350439;32;34361;-86
2020/12/06 03:42:35;;;;;;;3.53;3.20;;;;;;;7.54;77.36;99488.44;4346030;32;32326;-86
2020/12/06 03:45:04;;;;;;;5.65;4.40;;;;;;;7.74;76.69;99482.25;4362923;32;31873;-86
2020/12/06 03:47:31;;;;;;;;;;;;;;;7.49;77.79;99482.75;4351245;32;35846;-86
2020/12/06 03:49:58;;;;;;;4.93;4.47;;;;;;;7.58;77.14;99484.59;4350618;32;34725;-86
2020/12/06 03:52:26;;;;;;;5.85;4.32;;;;;;;7.68;76.88;99479.31;4358739;32;32165;-86
2020/12/06 03:54:54;;;;;;;3.37;2.78;;;;;;;7.51;77.67;99478.13;4343236;33;32171;-86
2020/12/06 03:57:21;;;;;;;3.08;2.60;;;;;;;7.56;77.46;99483.84;4337761;32;35534;-86
2020/12/06 03:59:49;;;;;;;2.47;2.12;;;;;;;7.71;76.98;99482.53;4338323;32;33370;-86
2020/12/06 04:02:17;;;;;;;4.40;3.00;;;;;;;7.64;77.02;99486.69;4349848;32;34431;-86
2020/12/06 04:04:45;;;;;;;3.20;2.53;;;;;;;7.69;76.92;99481.84;4331147;32;32088;-86
2020/12/06 04:07:13;;;;;;;4.60;2.87;;;;;;;7.61;77.18;99492.25;4350531;32;35676;-87
2020/12/06 04:09:40;;;;;;;3.55;3.25;;;;;;;7.97;75.70;99477.59;4350650;32;34410;-86
2020/12/06 04:12:08;;;;;;;5.22;3.20;;;;;;;7.78;76.29;99470.44;4348451;32;31190;-87
2020/12/06 04:14:36;;;;;;;3.37;3.08;;;;;;;7.53;77.42;99480.63;4344840;32;32009;-86
2020/12/06 04:17:03;;;;;;;4.57;2.72;;;;;;;7.54;77.48;99474.41;4349729;32;33521;-87
2020/12/06 04:19:31;;;;;;;3.97;3.45;;;;;;;7.57;77.23;99480.25;4362701;32;35105;-86
2020/12/06 04:21:59;;;;;;;7.12;3.80;;;;;;;7.58;77.35;99487.25;4374685;32;33105;-86
2020/12/06 04:24:27;;;;;;;;;;;;;;;7.39;77.83;99489.78;4362339;32;33528;-86
2020/12/06 04:26:55;;;;;;;1.10;1.08;;;;;;;7.67;76.89;99496.19;4349718;32;33210;-87
2020/12/06 04:29:22;;;;;;;3.62;3.10;;;;;;;7.59;77.19;99499.50;4362557;32;33524;-86
2020/12/06 04:31:49;;;;;;;4.12;3.83;;;;;;;7.31;78.40;99494.06;4339873;33;33150;-86
2020/12/06 04:34:17;;;;;;;8.68;5.03;;;;;;;7.65;76.60;99493.66;4361493;32;33856;-86
2020/12/06 04:36:45;;;;;;;4.47;2.60;;;;;;;7.48;77.54;99488.16;4362573;32;33720;-86
2020/12/06 04:39:15;;;;;;;2.47;2.28;;;;;;;7.39;77.83;99486.28;4350743;32;33999;-86
2020/12/06 04:41:43;;;;;;;3.65;2.83;;;;;;;7.73;76.04;99493.81;4354083;32;33150;-86
2020/12/06 04:44:10;;;;;;;3.62;3.33;;;;;;;7.70;75.96;99496.75;4339984;32;34253;-86
2020/12/06 04:46:39;;;;;;;3.35;1.90;;;;;;;7.44;76.89;99498.16;4350109;32;34881;-86
2020/12/06 04:49:45;;;;;;;3.40;2.60;;;;;;;7.52;76.58;99501.00;4350356;32;35215;-87
2020/12/06 04:52:16;;;;;;;1.75;1.45;;;;;;;7.63;76.31;99500.91;4338061;32;34349;-87
2020/12/06 04:55:04;;;;;;;6.45;5.60;;;;;;;7.31;77.86;99502.00;4348484;32;34516;-87
2020/12/06 04:57:34;;;;;;;2.72;2.53;;;;;;;7.41;77.51;99502.88;4345966;32;34530;-86
2020/12/06 05:00:11;;;;;;;2.17;1.98;;;;;;;7.10;78.60;99494.06;4338591;32;33400;-87
2020/12/06 05:02:41;;;;;;;3.72;3.35;;;;;;;7.50;76.91;99489.69;4347330;32;33668;-86
2020/12/06 05:05:13;;;;;;;6.15;3.72;;;;;;;7.14;78.69;99492.84;4358586;32;33710;-86
2020/12/06 05:07:45;;;;;;;4.37;2.47;;;;;;;7.17;78.95;99489.94;4338140;32;34911;-87
2020/12/06 05:10:19;;;;;;;;;;;;;;;6.64;80.62;99490.94;4339279;32;34051;-86
2020/12/06 05:12:46;;;;;;;5.07;3.47;;;;;;;7.38;77.85;99492.56;4336985;33;33538;-86
2020/12/06 05:15:13;;;;;;;4.40;4.00;;;;;;;7.37;77.93;99489.06;4343583;32;32634;-87
2020/12/06 05:17:41;;;;;;;3.35;2.83;;;;;;;7.44;77.72;99498.16;4337815;32;33738;-87
2020/12/06 05:20:12;;;;;;;4.15;3.17;;;;;;;7.62;76.85;99506.31;4349908;32;34221;-86
2020/12/06 05:22:46;;;;;;;2.62;2.42;;;;;;;7.54;77.25;99504.34;4349026;32;33942;-86
2020/12/06 05:25:15;;;;;;;7.35;3.37;;;;;;;7.43;77.70;99501.78;4338077;32;32467;-87
2020/12/06 05:27:44;;;;;;;3.97;2.90;;;;;;;7.26;78.34;99498.91;4349885;32;35711;-86
2020/12/06 05:30:12;;;;;;;3.65;1.95;;;;;;;7.55;77.12;99500.72;4362214;32;34978;-87
2020/12/06 05:32:40;;;;;;;3.45;1.90;;;;;;;7.45;77.38;99497.19;4360131;32;32309;-86
2020/12/06 05:35:09;;;;;;;3.70;3.40;;;;;;;7.51;77.42;99495.81;4374458;32;34274;-86
2020/12/06 05:37:41;;;;;;;2.17;1.75;;;;;;;7.37;77.70;99496.19;4349546;32;34864;-87
2020/12/06 05:40:13;;;;;;;2.50;2.30;;;;;;;7.40;77.58;99490.63;4348625;32;32907;-86
2020/12/06 05:42:41;;;;;;;4.65;4.15;;;;;;;7.11;78.65;99477.25;4349929;32;31875;-87
2020/12/06 05:45:11;;;;;;;3.08;2.78;;;;;;;7.12;78.92;99470.97;4337787;32;33130;-86
2020/12/06 05:47:38;;;;;;;2.80;1.85;;;;;;;7.28;78.24;99476.63;4349591;32;34636;-86
2020/12/06 05:50:06;;;;;;;2.10;1.77;;;;;;;7.18;78.58;99464.31;4349966;32;35006;-86
2020/12/06 05:52:35;;;;;;;1.77;1.65;;;;;;;7.25;78.55;99476.88;4365550;32;33909;-86
2020/12/06 05:55:03;;;;;;;2.67;1.92;;;;;;;7.37;78.01;99480.31;4349939;32;34567;-86
2020/12/06 05:57:44;;;;;;;3.42;2.95;;;;;;;7.16;78.11;99471.56;4362175;32;34937;-87
2020/12/06 06:00:12;;;;;;;;;;;;;;;7.21;78.36;99475.50;4337885;32;34168;-87
2020/12/06 06:02:42;;;;;;;;;;;;;;;7.13;78.33;99480.59;4368587;32;32572;-87
2020/12/06 06:05:12;;;;;;;2.90;2.70;;;;;;;7.28;78.02;99483.75;4334843;32;32415;-86
2020/12/06 06:07:41;;;;;;;5.20;4.65;;;;;;;7.24;78.08;99484.94;4342973;32;33913;-86
2020/12/06 06:10:11;;;;;;;1.98;1.87;;;;;;;7.35;77.60;99488.38;4345030;32;32827;-85
2020/12/06 06:12:42;;;;;;;4.07;3.30;;;;;;;7.14;78.22;99481.41;4337210;32;32431;-86
2020/12/06 06:15:10;;;;;;;3.62;2.95;;;;;;;7.74;75.88;99489.38;4336361;32;31777;-86
2020/12/06 06:17:38;;;;;;;2.80;2.60;;;;;;;7.49;76.80;99497.75;4349626;32;34932;-86
2020/12/06 06:20:06;;;;;;;2.42;1.75;;;;;;;7.49;76.58;99488.03;4349177;32;33195;-87
2020/12/06 06:22:39;;;;;;;4.30;1.98;;;;;;;7.56;76.44;99483.84;4344858;32;31524;-85
2020/12/06 06:25:08;;;;;;;6.07;3.55;;;;;;;7.23;77.87;99491.22;4348739;32;32102;-86
2020/12/06 06:27:38;;;;;;;3.95;2.90;;;;;;;7.25;77.72;99491.91;4325447;32;34854;-85
2020/12/06 06:30:10;;;;;;;3.30;2.20;;;;;;;7.58;76.57;99497.81;4348688;32;32645;-86
2020/12/06 06:32:38;;;;;;;3.78;1.55;;;;;;;7.38;77.31;99487.28;4346530;32;32905;-87
2020/12/06 06:35:08;;;;;;;3.08;2.87;;;;;;;7.46;76.78;99487.44;4349089;32;32567;-86
2020/12/06 06:37:37;;;;;;;4.07;3.80;;;;;;;7.52;76.56;99489.56;4359661;32;34732;-86
2020/12/06 06:40:09;;;;;;;4.68;1.80;;;;;;;7.56;76.55;99490.97;4370693;32;34333;-86
2020/12/06 06:42:37;;;;;;;1.75;1.48;;;;;;;7.49;76.86;99493.31;4325712;32;32589;-86
2020/12/06 06:45:08;;;;;;;5.85;3.33;;;;;;;7.62;76.61;99495.72;4369514;32;33701;-86
2020/12/06 06:47:37;;;;;;;7.60;3.50;;;;;;;7.65;76.33;99495.47;4357529;32;33771;-86
2020/12/06 06:50:07;;;;;;;4.30;2.95;;;;;;;7.55;76.93;99492.78;4336657;32;34875;-86
2020/12/06 06:52:36;;;;;;;4.32;3.75;;;;;;;7.83;75.72;99501.81;4339051;32;33842;-86
2020/12/06 06:55:04;;;;;;;1.98;1.85;;;;;;;7.62;77.01;99496.56;4343012;32;33039;-86
2020/12/06 06:57:32;;;;;;;4.75;4.03;;;;;;;7.57;77.45;99503.25;4352473;32;34615;-86
2020/12/06 07:00:01;;;;;;;2.90;2.65;;;;;;;7.55;77.61;99498.06;4359561;32;34360;-86
2020/12/06 07:02:45;;;;;;;4.68;3.83;;;;;;;7.53;77.59;99486.78;4350224;32;34060;-87
2020/12/06 07:05:12;;;;;;;3.12;2.90;;;;;;;7.85;76.28;99497.22;4344527;32;32580;-87
2020/12/06 07:07:47;;;;;;;2.55;2.40;;;;;;;7.63;77.19;99500.91;4343604;32;33472;-86
2020/12/06 07:10:17;;;;;;;2.87;1.85;;;;;;;7.55;77.68;99511.31;4357914;32;34690;-86
2020/12/06 07:12:51;;;;;;;3.80;3.42;;;;;;;7.66;77.15;99505.91;4328962;32;33590;-87
2020/12/06 07:15:21;;;;;;;2.83;2.58;;;;;;;7.73;76.93;99514.19;4346117;32;33244;-87
2020/12/06 07:17:50;;;;;;;2.97;2.50;;;;;;;7.66;77.16;99505.91;4332284;32;33196;-86
2020/12/06 07:20:21;;;;;;;3.25;2.55;;;;;;;7.92;76.19;99512.44;4331412;32;35198;-86
2020/12/06 07:22:49;;;;;;;4.10;3.03;;;;;;;7.59;77.54;99502.16;4332520;32;32015;-86
2020/12/06 07:25:17;;;;;;;5.60;1.77;;;;;;;7.81;76.94;99511.72;4329191;32;33583;-86
2020/12/06 07:27:46;;;;;;;2.97;2.45;;;;;;;7.76;77.01;99509.47;4340172;32;35417;-86
2020/12/06 07:30:15;;;;;;;;;;;;;;;7.80;77.07;99520.59;4330615;32;33082;-86
2020/12/06 07:32:43;;;;;;;3.37;3.08;;;;;;;8.01;76.25;99540.75;4339884;32;33700;-86
2020/12/06 07:35:13;;;;;;;2.75;2.50;;;;;;;8.09;75.72;99534.81;4335464;32;33151;-86
2020/12/06 07:37:40;;;;;;;6.18;3.35;;;;;;;8.23;75.12;99519.41;4347522;32;33449;-86
2020/12/06 07:40:10;;;;;;;4.40;2.95;;;;;;;8.10;75.59;99518.75;4362104;32;34069;-86
2020/12/06 07:42:38;;;;;;;4.82;3.87;;;;;;;8.08;75.82;99518.06;4337119;32;33962;-85
2020/12/06 07:45:08;;;;;;;5.82;3.87;;;;;;;8.10;75.62;99507.34;4282104;32;32732;-85
2020/12/06 07:47:38;;;;;;;6.87;3.22;;;;;;;7.97;75.97;99515.53;4306109;32;35368;-86
2020/12/06 07:50:06;;;;;;;8.10;4.50;;;;;;;8.10;75.44;99510.81;4324173;32;34101;-86
2020/12/06 07:52:35;;;;;;;3.72;1.92;;;;;;;8.00;76.14;99509.94;4326154;32;32459;-86
2020/12/06 07:55:07;;;;;;;3.17;2.47;;;;;;;8.14;75.61;99509.59;4350533;32;33590;-86
2020/12/06 07:57:41;;;;;;;10.07;4.30;;;;;;;8.11;75.70;99516.97;4337881;32;33347;-86
2020/12/06 08:00:13;;;;;;;2.78;2.08;;;;;;;7.92;76.20;99507.13;4350244;32;33919;-86
2020/12/06 08:02:43;;;;;;;4.25;3.83;;;;;;;7.98;76.40;99521.66;4348714;32;33239;-86
2020/12/06 08:05:16;;;;;;;4.15;2.42;;;;;;;8.07;75.81;99510.25;4336971;32;33652;-86
2020/12/06 08:07:47;;;;;;;4.18;2.67;;;;;;;8.12;75.56;99508.84;4323831;33;35016;-85
2020/12/06 08:10:16;;;;;;;3.75;2.95;;;;;;;8.09;76.01;99511.78;4347808;33;34983;-85
2020/12/06 08:12:46;;;;;;;5.62;3.03;;;;;;;7.99;76.24;99523.31;4335424;33;32761;-85
2020/12/06 08:15:14;;;;;;;4.18;3.78;;;;;;;8.26;75.19;99516.47;4335688;33;34549;-85
2020/12/06 08:17:49;;;;;;;4.50;3.07;;;;;;;8.19;75.12;99511.88;4335317;33;34884;-85
2020/12/06 08:20:18;;;;;;;4.35;3.95;;;;;;;8.26;75.11;99510.31;4347792;33;34845;-86
2020/12/06 08:22:50;;;;;;;2.95;2.65;;;;;;;8.11;75.72;99503.72;4323426;33;32145;-85
2020/12/06 08:25:23;;;;;;;5.37;2.50;;;;;;;8.04;76.11;99500.78;4347688;33;33588;-86
2020/12/06 08:27:52;;;;;;;1.77;1.33;;;;;;;8.30;75.08;99501.97;4335981;33;34772;-85
2020/12/06 08:30:21;;;;;;;3.22;2.28;;;;;;;8.35;75.24;99499.75;4335596;33;34840;-85
2020/12/06 08:32:50;;;;;;;3.42;2.22;;;;;;;8.34;75.28;99492.78;4347216;33;33565;-86
2020/12/06 08:35:17;;;;;;;2.58;2.15;;;;;;;8.45;74.65;99492.66;4344589;33;33348;-86
2020/12/06 08:37:46;;;;;;;8.55;5.18;;;;;;;8.51;74.39;99508.81;4347846;33;34906;-86
2020/12/06 08:40:13;;;;;;;3.40;3.17;;;;;;;8.65;74.01;99503.13;4335504;33;34430;-86
2020/12/06 08:42:40;;;;;;;7.32;3.17;;;;;;;8.55;73.98;99501.44;4343647;32;32313;-86
2020/12/06 08:45:07;;;;;;;3.97;1.35;;;;;;;8.60;74.47;99501.88;4323335;33;33669;-86
2020/12/06 08:47:43;;;;;;;5.97;3.60;;;;;;;8.60;74.08;99485.97;4332989;33;34082;-89
2020/12/06 08:50:13;;;;;;;1.85;1.35;;;;;;;8.73;73.76;99489.97;4322967;33;32508;-86
2020/12/06 08:52:41;;;;;;;2.83;1.60;;;;;;;8.80;73.48;99480.50;4341930;33;33355;-86
2020/12/06 08:55:25;;;;;;;2.80;2.37;;;;;;;8.60;73.50;99472.72;4347526;33;33878;-86
2020/12/06 08:57:54;;;;;;;2.08;1.98;;;;;;;8.69;73.25;99475.34;4335169;33;33178;-86
2020/12/06 09:00:27;;;;;;;4.40;2.95;;;;;;;8.78;73.08;99481.59;4335559;33;32819;-86
2020/12/06 09:03:01;;;;;;;5.82;2.87;;;;;;;8.72;73.42;99472.41;4335368;33;31734;-86
2020/12/06 09:05:28;;;;;;;2.50;1.98;;;;;;;8.93;72.90;99470.44;4337797;32;34876;-86
2020/12/06 09:07:56;;;;;;;3.95;2.58;;;;;;;8.91;72.67;99469.72;4338026;32;35854;-86
2020/12/06 09:10:24;;;;;;;3.30;2.00;;;;;;;8.98;72.34;99475.31;4357976;32;34300;-86
2020/12/06 09:12:51;;;;;;;3.90;2.97;;;;;;;9.07;71.73;99463.88;4337582;32;32943;-85
2020/12/06 09:15:20;;;;;;;2.47;1.92;;;;;;;8.70;73.24;99469.06;4350016;32;33724;-86
2020/12/06 09:17:50;;;;;;;2.10;1.90;;;;;;;8.81;72.59;99463.59;4350241;32;34839;-86
2020/12/06 09:20:18;;;;;;;4.70;2.53;;;;;;;9.16;71.75;99476.28;4337472;32;33534;-87
2020/12/06 09:22:46;;;;;;;1.95;1.85;;;;;;;9.20;71.47;99477.66;4362361;32;33581;-87
2020/12/06 09:25:13;;;;;;;3.80;2.65;;;;;;;9.12;71.27;99481.03;4361934;32;33192;-86
2020/12/06 09:27:40;;;;;;;3.60;3.30;;;;;;;9.02;72.61;99471.41;4349490;32;34562;-85
2020/12/06 09:30:11;;;;;;;3.53;2.15;;;;;;;9.15;71.69;99474.56;4349212;32;34078;-86
2020/12/06 09:32:38;;;;;;;2.65;2.33;;;;;;;9.30;71.30;99465.19;4360952;32;32268;-86
2020/12/06 09:35:06;;;;;;;3.28;1.85;;;;;;;9.47;70.60;99467.91;4347473;32;34480;-86
2020/12/06 09:37:36;;;;;;;4.95;3.15;;;;;;;9.46;70.42;99458.28;4341467;32;34445;-86
2020/12/06 09:40:03;;;;;;;3.10;2.55;;;;;;;9.45;70.62;99453.13;4325415;32;34304;-86
2020/12/06 09:42:35;;;;;;;3.35;1.35;;;;;;;9.31;71.20;99446.47;4349630;32;33984;-86
2020/12/06 09:45:04;;;;;;;1.73;1.62;;;;;;;9.27;71.31;99439.75;4325372;32;32483;-87
2020/12/06 09:47:32;;;;;;;2.10;2.00;;;;;;;9.26;71.31;99442.59;4346790;33;34523;-86
2020/12/06 09:49:59;;;;;;;5.13;3.77;;;;;;;9.45;70.85;99432.72;4310612;33;33250;-86
2020/12/06 09:52:26;;;;;;;4.62;2.83;;;;;;;9.37;71.21;99426.47;4322278;33;33386;-86
2020/12/06 09:54:56;;;;;;;5.17;2.53;;;;;;;9.63;70.48;99420.34;4322826;33;32543;-86
2020/12/06 09:57:25;;;;;;;2.90;2.00;;;;;;;9.61;70.76;99416.16;4326706;33;34718;-87
2020/12/06 09:59:54;;;;;;;4.93;3.12;;;;;;;9.99;69.74;99410.59;4346365;33;32990;-87
2020/12/06 10:02:22;;;;;;;3.58;3.33;;;;;;;10.28;68.43;99398.81;4334775;32;32024;-86
2020/12/06 10:04:51;;;;;;;3.85;2.67;;;;;;;10.02;69.28;99391.72;4344752;32;34553;-87
2020/12/06 10:07:21;;;;;;;5.40;2.35;;;;;;;10.32;68.70;99392.25;4349149;32;35478;-86
2020/12/06 10:09:52;;;;;;;2.92;2.15;;;;;;;10.57;67.59;99383.47;4338185;32;35009;-87
2020/12/06 10:12:21;;;;;;;8.48;3.03;;;;;;;10.50;67.82;99379.78;4325581;32;31743;-87
2020/12/06 10:14:49;;;;;;;5.12;2.65;;;;;;;10.44;68.04;99375.06;4336495;32;34304;-86
2020/12/06 10:17:16;;;;;;;2.65;1.70;;;;;;;10.72;67.26;99373.09;4343757;32;33693;-87
2020/12/06 10:19:44;;;;;;;2.03;1.73;;;;;;;10.90;66.60;99376.53;4336374;32;34228;-86
2020/12/06 10:22:12;;;;;;;1.83;1.73;;;;;;;10.94;66.66;99362.78;4330132;32;32629;-86
2020/12/06 10:24:42;;;;;;;1.97;1.77;;;;;;;10.82;66.87;99369.34;4348485;32;31870;-87
2020/12/06 10:27:11;;;;;;;2.67;1.92;;;;;;;10.79;66.83;99369.69;4337686;32;34920;-86
2020/12/06 10:29:39;;;;;;;1.52;1.42;;;;;;;11.08;66.53;99369.34;4349581;32;33545;-85
2020/12/06 10:32:06;;;;;;;5.25;3.33;;;;;;;11.27;65.25;99374.44;4328729;32;31507;-86
2020/12/06 10:34:33;;;;;;;3.35;2.58;;;;;;;11.43;65.56;99357.56;4362635;32;33337;-87
2020/12/06 10:37:00;;;;;;;3.67;2.43;;;;;;;11.67;63.71;99363.00;4336400;32;34901;-86
2020/12/06 10:39:28;;;;;;;2.47;1.80;;;;;;;11.53;64.53;99349.44;4364126;32;34387;-86
2020/12/06 10:41:57;;;;;;;4.25;2.28;;;;;;;11.44;64.68;99345.91;4350392;32;31551;-86
2020/12/06 10:44:25;;;;;;;2.95;2.20;;;;;;;11.56;64.62;99346.44;4338661;32;33292;-86
2020/12/06 10:46:52;;;;;;;;;;;;;;;11.42;65.05;99341.72;4351561;32;34301;-86
2020/12/06 10:49:21;;;;;;;3.17;1.55;;;;;;;11.44;64.38;99342.41;4350583;32;34495;-86
2020/12/06 10:51:48;;;;;;;4.50;2.65;;;;;;;11.20;65.46;99346.78;4350896;32;33067;-86
2020/12/06 10:54:15;;;;;;;8.75;2.42;;;;;;;11.64;64.47;99343.84;4349750;32;31892;-87
2020/12/06 10:56:43;;;;;;;2.45;2.25;;;;;;;11.87;63.71;99340.41;4351303;32;35813;-87
2020/12/06 10:59:11;;;;;;;1.27;1.23;;;;;;;11.64;64.06;99320.69;4347934;32;34326;-86
2020/12/06 11:01:38;;;;;;;3.00;1.70;;;;;;;11.79;63.67;99323.56;4338641;32;33706;-86
2020/12/06 11:04:06;;;;;;;3.97;3.67;;;;;;;11.73;63.68;99322.37;4359317;32;33138;-87
2020/12/06 11:06:34;;;;;;;2.97;1.52;;;;;;;11.80;63.70;99312.75;4349882;32;35260;-86
2020/12/06 11:09:03;;;;;;;3.78;1.87;;;;;;;12.12;62.56;99319.97;4350659;32;34287;-86
2020/12/06 11:11:30;;;;;;;5.57;2.83;;;;;;;12.05;63.15;99295.78;4350741;32;33189;-85
2020/12/06 11:13:58;;;;;;;5.32;2.72;;;;;;;12.07;62.65;99298.28;4348308;33;33746;-86
2020/12/06 11:16:25;;;;;;;3.00;1.98;;;;;;;12.18;62.80;99290.78;4350064;32;34666;-87
2020/12/06 11:18:53;;;;;;;2.42;2.22;;;;;;;12.12;62.40;99283.44;4349330;32;32476;-86
2020/12/06 11:21:20;;;;;;;2.55;2.25;;;;;;;12.10;62.80;99282.78;4349028;32;32167;-87
2020/12/06 11:23:48;;;;;;;2.47;2.03;;;;;;;12.08;63.08;99275.94;4350667;32;32495;-86
2020/12/06 11:26:17;;;;;;;1.85;1.75;;;;;;;12.26;62.69;99266.78;4338205;32;34419;-85
2020/12/06 11:28:45;;;;;;;3.05;1.87;;;;;;;12.43;61.70;99264.94;4336534;32;34145;-87
2020/12/06 11:31:13;;;;;;;1.60;1.37;;;;;;;12.12;62.37;99267.44;4336035;33;34545;-86
2020/12/06 11:33:42;;;;;;;4.37;2.30;;;;;;;12.04;62.77;99253.28;4324071;33;32664;-86
2020/12/06 11:36:10;;;;;;;2.30;2.00;;;;;;;12.22;62.59;99251.28;4349410;32;34845;-86
2020/12/06 11:38:39;;;;;;;2.55;1.85;;;;;;;12.10;62.94;99256.13;4345017;32;34718;-85
2020/12/06 11:41:09;;;;;;;2.47;2.05;;;;;;;12.19;63.17;99254.31;4353665;32;32818;-85
2020/12/06 11:43:36;;;;;;;2.65;2.20;;;;;;;12.07;62.96;99244.94;4323959;32;32524;-86
2020/12/06 11:46:04;;;;;;;3.70;2.62;;;;;;;12.14;62.79;99249.47;4357699;32;35373;-86
2020/12/06 11:48:31;;;;;;;3.65;1.75;;;;;;;12.22;63.26;99248.63;4349882;32;33815;-85
2020/12/06 11:51:04;;;;;;;2.15;1.65;;;;;;;12.64;61.66;99241.22;4348635;32;31857;-86